Time;durP1;ratioP1;P1;durP2;ratioP2;P2;SDS_P1;SDS_P2;PMS_P1;PMS_P2;Temp;Humidity;BMP_temperature;BMP_pressure;BME280_temperature;BME280_humidity;BME280_pressure;Samples;Min_cycle;Max_cycle;Signal;HPM_P1;HPM_P2
2024/02/06 00:01:51;;;;;;;12.13;2.50;;;10.30;99.90;;;;;;5045118;28;20036;-74
2024/02/06 00:04:17;;;;;;;7.63;1.73;;;10.20;99.90;;;;;;5054994;28;20033;-75
2024/02/06 00:06:43;;;;;;;8.70;1.75;;;10.20;99.90;;;;;;5047921;28;20028;-75
2024/02/06 00:09:09;;;;;;;12.07;1.92;;;10.20;99.90;;;;;;5063829;28;20040;-74
2024/02/06 00:11:34;;;;;;;6.20;1.45;;;10.20;99.90;;;;;;5047745;28;20039;-75
2024/02/06 00:14:00;;;;;;;14.35;2.80;;;10.20;99.90;;;;;;5061867;28;20115;-75
2024/02/06 00:16:26;;;;;;;12.05;2.55;;;10.20;99.90;;;;;;5059611;28;20032;-75
2024/02/06 00:18:51;;;;;;;12.85;1.98;;;10.20;99.90;;;;;;5058911;28;20034;-75
2024/02/06 00:21:17;;;;;;;10.02;1.73;;;10.30;99.90;;;;;;5046479;28;20063;-74
2024/02/06 00:23:43;;;;;;;8.00;1.90;;;10.30;99.90;;;;;;5048206;28;20040;-74
2024/02/06 00:26:09;;;;;;;15.38;2.17;;;10.30;99.90;;;;;;5058213;28;20055;-73
2024/02/06 00:28:34;;;;;;;15.60;2.28;;;10.30;99.90;;;;;;5060318;28;20041;-73
2024/02/06 00:31:00;;;;;;;18.60;1.98;;;10.30;99.90;;;;;;5060801;28;20033;-74
2024/02/06 00:33:25;;;;;;;10.40;2.90;;;10.30;99.90;;;;;;5046386;28;20127;-74
2024/02/06 00:35:51;;;;;;;16.80;1.92;;;10.30;99.90;;;;;;5051320;28;20135;-75
2024/02/06 00:38:16;;;;;;;12.45;2.58;;;10.30;99.90;;;;;;5065723;28;20037;-75
2024/02/06 00:40:42;;;;;;;12.27;2.95;;;10.40;99.90;;;;;;5049958;28;20043;-76
2024/02/06 00:43:08;;;;;;;22.35;2.40;;;10.30;99.90;;;;;;5044284;28;20040;-73
2024/02/06 00:45:33;;;;;;;9.95;2.13;;;10.30;99.90;;;;;;5060525;28;20033;-75
2024/02/06 00:47:59;;;;;;;13.68;1.83;;;10.30;99.90;;;;;;5042144;28;20082;-76
2024/02/06 00:50:24;;;;;;;11.70;2.33;;;10.30;99.90;;;;;;5060675;28;20090;-74
2024/02/06 00:52:50;;;;;;;11.15;1.88;;;10.40;99.90;;;;;;5039405;28;20041;-75
2024/02/06 00:55:16;;;;;;;8.85;1.90;;;10.40;99.90;;;;;;5037909;28;20048;-78
2024/02/06 00:57:42;;;;;;;11.25;2.10;;;10.40;99.90;;;;;;5061566;28;20082;-75
2024/02/06 01:00:09;;;;;;;14.88;2.38;;;10.50;99.90;;;;;;5057981;28;20301;-75
2024/02/06 01:02:35;;;;;;;10.32;1.45;;;10.50;99.90;;;;;;5045683;28;20505;-75
2024/02/06 01:05:04;;;;;;;35.67;2.33;;;10.40;99.90;;;;;;5043200;28;20047;-75
2024/02/06 01:07:30;;;;;;;10.63;1.85;;;10.40;99.90;;;;;;5049043;28;20094;-75
2024/02/06 01:09:55;;;;;;;10.07;1.35;;;10.50;99.90;;;;;;5061458;28;20067;-75
2024/02/06 01:12:21;;;;;;;28.65;4.38;;;10.50;99.90;;;;;;5041374;28;20043;-76
2024/02/06 01:14:47;;;;;;;21.38;3.40;;;10.50;99.90;;;;;;5046000;28;20494;-75
2024/02/06 01:17:13;;;;;;;11.05;1.77;;;10.50;99.90;;;;;;5064858;28;20045;-76
2024/02/06 01:19:38;;;;;;;15.70;2.22;;;10.40;99.90;;;;;;5048075;28;20457;-75
2024/02/06 01:22:05;;;;;;;14.15;2.05;;;10.50;99.90;;;;;;5045039;28;20037;-74
2024/02/06 01:24:31;;;;;;;9.60;2.05;;;10.50;99.90;;;;;;5071515;28;20055;-78
2024/02/06 01:26:57;;;;;;;15.10;2.28;;;10.50;99.90;;;;;;5054237;28;20048;-75
2024/02/06 01:29:23;;;;;;;12.75;2.38;;;10.50;99.90;;;;;;5064913;28;20033;-77
2024/02/06 01:31:49;;;;;;;15.18;2.08;;;10.50;99.90;;;;;;5046235;28;20679;-74
2024/02/06 01:34:15;;;;;;;14.13;2.63;;;10.60;99.90;;;;;;5044700;28;20097;-75
2024/02/06 01:36:40;;;;;;;11.98;1.92;;;10.50;99.90;;;;;;5047094;28;20032;-75
2024/02/06 01:39:07;;;;;;;11.48;2.50;;;10.60;99.90;;;;;;5060064;28;20044;-74
2024/02/06 01:41:32;;;;;;;9.38;2.83;;;10.50;99.90;;;;;;5046421;28;20393;-77
2024/02/06 01:43:58;;;;;;;13.38;2.75;;;10.50;99.90;;;;;;5061332;28;20036;-74
2024/02/06 01:46:24;;;;;;;14.98;2.22;;;10.40;99.90;;;;;;5064035;28;20048;-76
2024/02/06 01:48:50;;;;;;;12.07;1.35;;;10.50;99.90;;;;;;5062156;28;20032;-75
2024/02/06 01:51:18;;;;;;;18.00;2.40;;;10.50;99.90;;;;;;5062773;28;20037;-75
2024/02/06 01:53:44;;;;;;;9.60;1.17;;;10.50;99.90;;;;;;5063039;28;20082;-75
2024/02/06 01:56:11;;;;;;;12.70;2.25;;;10.50;99.90;;;;;;5056880;28;20040;-74
2024/02/06 01:58:36;;;;;;;11.20;1.95;;;10.50;99.90;;;;;;5061975;28;20064;-75
2024/02/06 02:01:04;;;;;;;12.32;1.52;;;10.50;99.90;;;;;;5058930;28;20124;-74
2024/02/06 02:03:32;;;;;;;21.77;2.60;;;10.60;99.90;;;;;;5045252;28;20036;-74
2024/02/06 02:05:59;;;;;;;11.63;1.70;;;10.50;99.90;;;;;;5041661;28;20094;-75
2024/02/06 02:08:30;;;;;;;9.88;1.77;;;10.50;99.90;;;;;;5044664;28;20029;-75
2024/02/06 02:10:56;;;;;;;13.73;2.10;;;10.50;99.90;;;;;;5045496;28;20024;-75
2024/02/06 02:13:21;;;;;;;19.73;2.63;;;10.50;99.90;;;;;;5047724;28;20048;-78
2024/02/06 02:15:47;;;;;;;8.10;2.45;;;10.50;99.90;;;;;;5062450;28;20036;-75
2024/02/06 02:18:13;;;;;;;14.63;3.17;;;10.60;99.90;;;;;;5061320;28;20489;-75
2024/02/06 02:20:38;;;;;;;11.70;2.25;;;10.50;99.90;;;;;;5043941;28;20036;-75
2024/02/06 02:23:04;;;;;;;15.95;2.20;;;10.50;99.90;;;;;;5060692;28;20052;-75
2024/02/06 02:25:29;;;;;;;16.92;1.40;;;10.50;99.90;;;;;;5050332;28;20054;-75
2024/02/06 02:27:55;;;;;;;17.58;2.97;;;10.60;99.90;;;;;;5048824;28;20577;-74
2024/02/06 02:30:21;;;;;;;12.02;2.00;;;10.60;99.90;;;;;;5065808;28;20075;-74
2024/02/06 02:32:47;;;;;;;24.98;2.78;;;10.60;99.90;;;;;;5067734;28;20497;-75
2024/02/06 02:35:13;;;;;;;8.52;2.80;;;10.60;99.90;;;;;;5066265;28;20063;-75
2024/02/06 02:37:39;;;;;;;17.63;2.10;;;10.50;99.90;;;;;;5050653;28;20036;-75
2024/02/06 02:40:06;;;;;;;13.27;2.75;;;10.60;99.90;;;;;;5045715;28;20032;-74
2024/02/06 02:42:32;;;;;;;21.33;2.78;;;10.60;99.90;;;;;;5050984;28;20068;-75
2024/02/06 02:44:57;;;;;;;18.00;2.38;;;10.60;99.90;;;;;;5050434;28;20072;-77
2024/02/06 02:47:23;;;;;;;14.85;2.38;;;10.50;99.90;;;;;;5064942;28;20067;-76
2024/02/06 02:49:49;;;;;;;23.10;3.58;;;10.50;99.90;;;;;;5050546;28;20043;-73
2024/02/06 02:52:14;;;;;;;13.02;2.45;;;10.50;99.90;;;;;;5048007;28;20032;-75
2024/02/06 02:54:40;;;;;;;24.88;2.88;;;10.60;99.90;;;;;;5060935;28;20102;-74
2024/02/06 02:57:06;;;;;;;21.40;2.78;;;10.60;99.90;;;;;;5066088;28;20409;-74
2024/02/06 02:59:32;;;;;;;18.70;1.95;;;10.60;99.90;;;;;;5050343;28;20060;-76
2024/02/06 03:01:58;;;;;;;14.35;2.45;;;10.60;99.90;;;;;;5053250;28;20044;-74
2024/02/06 03:04:23;;;;;;;14.73;2.80;;;10.50;99.90;;;;;;5068175;28;20024;-74
2024/02/06 03:06:49;;;;;;;17.88;1.70;;;10.60;99.90;;;;;;5060361;28;20039;-74
2024/02/06 03:09:16;;;;;;;16.02;2.35;;;10.60;99.90;;;;;;5047633;28;20060;-79
2024/02/06 03:11:41;;;;;;;19.52;2.70;;;10.60;99.90;;;;;;5047404;28;20405;-74
2024/02/06 03:14:07;;;;;;;23.52;4.28;;;10.60;99.90;;;;;;5054380;28;20043;-77
2024/02/06 03:16:32;;;;;;;11.00;1.95;;;10.60;99.90;;;;;;5046658;28;20048;-75
2024/02/06 03:18:58;;;;;;;15.38;2.15;;;10.60;99.90;;;;;;5058159;28;20036;-74
2024/02/06 03:21:23;;;;;;;10.38;2.60;;;10.60;99.90;;;;;;5057729;28;20550;-76
2024/02/06 03:23:49;;;;;;;9.40;2.30;;;10.60;99.90;;;;;;5062018;28;20056;-76
2024/02/06 03:26:14;;;;;;;18.30;2.25;;;10.50;99.90;;;;;;5048257;28;20032;-74
2024/02/06 03:28:40;;;;;;;23.05;2.25;;;10.50;99.90;;;;;;5056808;28;20025;-74
2024/02/06 03:31:06;;;;;;;16.90;2.92;;;10.60;99.90;;;;;;5058238;28;20029;-74
2024/02/06 03:33:34;;;;;;;19.48;3.42;;;10.50;99.90;;;;;;5055626;28;20043;-75
2024/02/06 03:35:59;;;;;;;13.25;1.83;;;10.60;99.90;;;;;;5055940;28;20036;-77
2024/02/06 03:38:25;;;;;;;17.38;2.20;;;10.50;99.90;;;;;;5060563;28;20138;-74
2024/02/06 03:40:50;;;;;;;13.13;2.53;;;10.50;99.90;;;;;;5045596;28;20063;-74
2024/02/06 03:43:16;;;;;;;13.55;2.15;;;10.50;99.90;;;;;;5058348;28;20052;-75
2024/02/06 03:45:41;;;;;;;17.88;1.95;;;10.50;99.90;;;;;;5059065;28;20079;-73
2024/02/06 03:48:07;;;;;;;15.43;2.00;;;10.50;99.90;;;;;;5050349;28;20055;-74
2024/02/06 03:50:33;;;;;;;16.77;2.30;;;10.50;99.90;;;;;;5045448;28;20033;-76
2024/02/06 03:52:58;;;;;;;22.58;4.10;;;10.50;99.90;;;;;;5044904;28;20040;-74
2024/02/06 03:55:24;;;;;;;11.95;1.90;;;10.60;99.90;;;;;;5058733;28;20456;-74
2024/02/06 03:57:49;;;;;;;17.02;3.15;;;10.60;99.90;;;;;;5059920;28;20507;-71
2024/02/06 04:00:15;;;;;;;18.30;2.65;;;10.50;99.90;;;;;;5058297;28;20081;-76
2024/02/06 04:02:40;;;;;;;15.00;2.00;;;10.60;99.90;;;;;;5043062;28;20033;-74
2024/02/06 04:05:06;;;;;;;18.00;2.63;;;10.70;99.90;;;;;;5047847;28;20181;-75
2024/02/06 04:07:32;;;;;;;9.02;2.67;;;10.60;99.90;;;;;;5056981;28;20040;-76
2024/02/06 04:09:57;;;;;;;16.48;3.70;;;10.50;99.90;;;;;;5047744;28;20077;-78
2024/02/06 04:12:23;;;;;;;19.05;2.60;;;10.60;99.90;;;;;;5059855;28;20459;-75
2024/02/06 04:14:48;;;;;;;15.07;2.03;;;10.60;99.90;;;;;;5063635;28;20489;-75
2024/02/06 04:17:14;;;;;;;10.38;2.00;;;10.60;99.90;;;;;;5063098;28;20029;-74
2024/02/06 04:19:39;;;;;;;10.38;3.10;;;10.50;99.90;;;;;;5060836;28;20028;-76
2024/02/06 04:22:05;;;;;;;14.27;2.65;;;10.50;99.90;;;;;;5057452;28;20078;-74
2024/02/06 04:24:30;;;;;;;13.50;2.30;;;10.50;99.90;;;;;;5044028;28;20094;-75
2024/02/06 04:26:56;;;;;;;13.60;3.13;;;10.50;99.90;;;;;;5050375;28;20036;-75
2024/02/06 04:29:22;;;;;;;20.63;2.95;;;10.60;99.90;;;;;;5060825;28;20075;-74
2024/02/06 04:31:48;;;;;;;20.83;3.00;;;10.50;99.90;;;;;;5046906;28;20132;-75
2024/02/06 04:34:13;;;;;;;11.93;2.05;;;10.50;99.90;;;;;;5047812;28;20037;-74
2024/02/06 04:36:39;;;;;;;18.85;2.28;;;10.60;99.90;;;;;;5047948;28;20044;-74
2024/02/06 04:39:08;;;;;;;16.13;2.65;;;10.60;99.90;;;;;;5065159;28;20044;-75
2024/02/06 04:41:36;;;;;;;16.08;3.60;;;10.50;99.90;;;;;;5062204;28;20035;-75
2024/02/06 04:44:02;;;;;;;15.98;2.28;;;10.50;99.90;;;;;;5058540;28;20025;-73
2024/02/06 04:46:27;;;;;;;17.17;3.25;;;10.60;99.90;;;;;;5048171;28;20051;-73
2024/02/06 04:48:53;;;;;;;21.42;2.95;;;10.50;99.90;;;;;;5048776;28;20390;-75
2024/02/06 04:51:18;;;;;;;20.83;2.42;;;10.60;99.90;;;;;;5045055;28;20036;-76
2024/02/06 04:53:44;;;;;;;12.52;2.47;;;10.60;99.90;;;;;;5043363;28;20091;-74
2024/02/06 04:56:12;;;;;;;19.23;3.33;;;10.60;99.90;;;;;;5059565;28;20090;-75
2024/02/06 04:58:37;;;;;;;16.50;2.67;;;10.60;99.90;;;;;;5041810;28;20056;-73
2024/02/06 05:01:03;;;;;;;14.48;2.70;;;10.60;99.90;;;;;;5048120;28;20032;-73
2024/02/06 05:03:29;;;;;;;16.45;2.80;;;10.60;99.90;;;;;;5059144;28;20379;-75
2024/02/06 05:05:54;;;;;;;31.02;2.78;;;10.60;99.90;;;;;;5053856;28;20057;-75
2024/02/06 05:08:20;;;;;;;16.40;3.63;;;10.70;99.90;;;;;;5045851;28;20040;-76
2024/02/06 05:10:47;;;;;;;18.90;2.92;;;10.70;99.90;;;;;;5047603;28;20025;-75
2024/02/06 05:13:13;;;;;;;30.33;3.03;;;10.70;99.90;;;;;;5062619;28;20048;-76
2024/02/06 05:15:39;;;;;;;16.33;1.63;;;10.80;99.90;;;;;;5059242;28;20393;-74
2024/02/06 05:18:04;;;;;;;19.50;2.58;;;10.70;99.90;;;;;;5062126;28;20033;-75
2024/02/06 05:20:30;;;;;;;16.50;2.92;;;10.70;99.90;;;;;;5064512;28;20041;-76
2024/02/06 05:22:55;;;;;;;22.50;1.83;;;10.70;99.90;;;;;;5045445;28;20036;-75
2024/02/06 05:25:21;;;;;;;14.85;2.50;;;10.70;99.90;;;;;;5046448;28;20021;-76
2024/02/06 05:27:47;;;;;;;21.90;3.25;;;10.70;99.90;;;;;;5063082;28;20362;-74
2024/02/06 05:30:13;;;;;;;15.80;2.45;;;10.70;99.90;;;;;;5062203;28;20037;-74
2024/02/06 05:32:39;;;;;;;22.92;4.57;;;10.70;99.90;;;;;;5047461;28;20041;-73
2024/02/06 05:35:05;;;;;;;15.90;3.47;;;10.80;99.90;;;;;;5062373;28;20046;-74
2024/02/06 05:37:31;;;;;;;17.35;2.80;;;10.70;99.90;;;;;;5061805;28;20085;-74
2024/02/06 05:39:57;;;;;;;16.23;3.83;;;10.70;99.90;;;;;;5053795;28;20689;-73
2024/02/06 05:42:23;;;;;;;19.00;2.08;;;10.80;99.90;;;;;;5018591;28;20022;-73
2024/02/06 05:44:49;;;;;;;22.20;3.35;;;10.80;99.90;;;;;;5029603;28;20037;-75
2024/02/06 05:47:16;;;;;;;26.25;4.85;;;10.80;99.90;;;;;;5022756;28;20060;-76
2024/02/06 05:49:42;;;;;;;19.92;3.00;;;10.80;99.90;;;;;;5042923;28;20049;-77
2024/02/06 05:52:07;;;;;;;18.40;3.25;;;10.80;99.90;;;;;;5042989;28;20040;-74
2024/02/06 05:54:33;;;;;;;16.75;2.60;;;10.80;99.90;;;;;;5042478;28;20047;-74
2024/02/06 05:56:58;;;;;;;25.48;3.78;;;10.80;99.90;;;;;;5025225;28;20037;-73
2024/02/06 05:59:25;;;;;;;25.02;3.55;;;10.80;99.90;;;;;;5030046;28;20498;-75
2024/02/06 06:01:51;;;;;;;23.00;4.38;;;10.80;99.90;;;;;;5044229;28;20040;-73
2024/02/06 06:04:17;;;;;;;20.23;3.45;;;10.80;99.90;;;;;;5028405;28;20045;-74
2024/02/06 06:06:42;;;;;;;17.38;3.53;;;10.80;99.90;;;;;;5040804;28;20110;-74
2024/02/06 06:09:09;;;;;;;14.82;2.97;;;10.80;99.90;;;;;;5042113;28;20037;-74
2024/02/06 06:11:35;;;;;;;16.17;3.35;;;10.80;99.90;;;;;;5043100;28;20063;-73
2024/02/06 06:14:01;;;;;;;15.70;2.60;;;10.80;99.90;;;;;;5036713;28;20033;-74
2024/02/06 06:16:27;;;;;;;23.98;3.03;;;10.80;99.90;;;;;;5045413;28;20029;-76
2024/02/06 06:18:52;;;;;;;20.67;4.32;;;10.80;99.90;;;;;;5047585;28;20039;-76
2024/02/06 06:21:18;;;;;;;23.85;4.18;;;10.80;99.90;;;;;;5047358;28;20112;-76
2024/02/06 06:23:43;;;;;;;18.33;3.65;;;10.80;99.90;;;;;;5048196;28;20059;-75
2024/02/06 06:26:09;;;;;;;19.30;2.80;;;10.80;99.90;;;;;;5029361;28;20045;-76
2024/02/06 06:28:34;;;;;;;19.67;2.80;;;10.80;99.90;;;;;;5027885;28;20041;-75
2024/02/06 06:31:00;;;;;;;19.55;2.90;;;10.80;99.90;;;;;;5028683;28;20396;-76
2024/02/06 06:33:25;;;;;;;17.60;2.67;;;10.80;99.90;;;;;;5034117;28;20037;-74
2024/02/06 06:35:51;;;;;;;17.80;3.15;;;10.80;99.90;;;;;;5039716;28;20021;-70
2024/02/06 06:38:16;;;;;;;23.00;3.78;;;10.80;99.90;;;;;;5042502;28;20044;-75
2024/02/06 06:40:42;;;;;;;14.93;3.08;;;10.70;99.90;;;;;;5032208;28;20433;-72
2024/02/06 06:43:10;;;;;;;23.27;3.13;;;10.80;99.90;;;;;;5024582;28;20029;-72
2024/02/06 06:45:35;;;;;;;23.92;3.38;;;10.80;99.90;;;;;;5027851;28;20433;-75
2024/02/06 06:48:01;;;;;;;21.08;4.45;;;10.80;99.90;;;;;;5037443;28;20025;-73
2024/02/06 06:50:26;;;;;;;21.20;2.80;;;10.80;99.90;;;;;;5039987;28;20444;-73
2024/02/06 06:52:52;;;;;;;19.92;2.85;;;10.80;99.90;;;;;;5040695;28;20036;-72
2024/02/06 06:55:17;;;;;;;15.52;2.75;;;10.80;99.90;;;;;;5034766;28;20041;-73
2024/02/06 06:57:43;;;;;;;28.25;3.25;;;10.80;99.90;;;;;;5042910;28;20037;-72
2024/02/06 07:00:13;;;;;;;26.48;3.53;;;10.80;99.90;;;;;;5028194;28;20057;-72
2024/02/06 07:02:39;;;;;;;19.00;2.58;;;10.80;99.90;;;;;;5028749;28;20033;-71
2024/02/06 07:05:08;;;;;;;18.70;2.85;;;10.80;99.90;;;;;;5040603;28;20041;-72
2024/02/06 07:07:34;;;;;;;19.73;3.08;;;10.90;99.90;;;;;;5036997;28;20159;-72
2024/02/06 07:10:00;;;;;;;23.33;4.97;;;10.80;99.90;;;;;;5026768;28;20033;-73
2024/02/06 07:12:26;;;;;;;26.50;3.33;;;10.80;99.90;;;;;;5038524;28;20088;-69
2024/02/06 07:14:51;;;;;;;22.42;3.08;;;10.90;99.90;;;;;;5023462;28;20041;-76
2024/02/06 07:17:17;;;;;;;20.92;3.60;;;10.80;99.90;;;;;;5025848;28;20045;-74
2024/02/06 07:19:43;;;;;;;23.15;4.00;;;10.90;99.90;;;;;;5040280;28;20108;-73
2024/02/06 07:22:09;;;;;;;19.98;4.22;;;10.80;99.90;;;;;;5020393;28;20038;-76
2024/02/06 07:24:35;;;;;;;16.58;3.22;;;10.80;99.90;;;;;;5026547;28;20034;-76
2024/02/06 07:27:00;;;;;;;19.10;3.22;;;10.80;99.90;;;;;;5039259;28;20455;-73
2024/02/06 07:29:26;;;;;;;17.17;3.70;;;10.80;99.90;;;;;;5026489;28;20151;-74
2024/02/06 07:31:52;;;;;;;26.08;3.45;;;10.80;99.90;;;;;;5038222;28;20449;-74
2024/02/06 07:34:21;;;;;;;20.95;3.25;;;10.90;99.90;;;;;;5025647;28;20080;-74
2024/02/06 07:36:46;;;;;;;19.02;3.33;;;10.80;99.90;;;;;;5027269;28;20397;-74
2024/02/06 07:39:12;;;;;;;12.82;3.25;;;10.90;99.90;;;;;;5025754;28;20025;-73
2024/02/06 07:41:38;;;;;;;18.85;3.05;;;10.90;99.90;;;;;;5040123;28;20030;-74
2024/02/06 07:44:04;;;;;;;14.65;2.97;;;10.80;99.90;;;;;;5056327;28;20458;-76
2024/02/06 07:46:30;;;;;;;24.90;3.28;;;10.80;99.90;;;;;;5040604;28;20033;-73
2024/02/06 07:48:56;;;;;;;24.27;4.50;;;10.80;99.90;;;;;;5021500;28;20083;-73
2024/02/06 07:51:23;;;;;;;18.10;3.58;;;10.90;99.90;;;;;;5042019;28;20032;-74
2024/02/06 07:53:49;;;;;;;18.80;2.88;;;10.80;99.90;;;;;;5042896;28;20036;-73
2024/02/06 07:56:16;;;;;;;21.27;3.80;;;10.80;99.90;;;;;;5028598;28;20037;-76
2024/02/06 07:58:41;;;;;;;29.08;3.50;;;10.90;99.90;;;;;;5020166;28;20032;-73
2024/02/06 08:01:06;;;;;;;15.63;2.88;;;10.90;99.90;;;;;;5023656;28;20045;-74
2024/02/06 08:03:32;;;;;;;23.77;4.50;;;10.90;99.90;;;;;;5041210;28;20037;-73
2024/02/06 08:05:58;;;;;;;25.05;2.47;;;10.90;99.90;;;;;;5040664;28;20079;-73
2024/02/06 08:08:24;;;;;;;27.33;2.90;;;10.90;99.90;;;;;;5038109;28;20086;-73
2024/02/06 08:10:50;;;;;;;20.05;3.83;;;10.90;99.90;;;;;;5027086;28;20094;-72
2024/02/06 08:13:16;;;;;;;14.18;3.15;;;10.80;99.90;;;;;;5024886;28;20430;-74
2024/02/06 08:15:41;;;;;;;17.42;3.40;;;10.90;99.90;;;;;;5041545;28;20025;-74
2024/02/06 08:18:07;;;;;;;21.30;4.38;;;10.90;99.90;;;;;;5040717;28;20537;-73
2024/02/06 08:20:33;;;;;;;21.65;3.13;;;10.90;99.90;;;;;;5028958;28;20037;-73
2024/02/06 08:22:59;;;;;;;16.15;2.20;;;10.90;99.90;;;;;;5020348;28;20033;-76
2024/02/06 08:25:25;;;;;;;20.70;3.08;;;10.90;99.90;;;;;;5045037;28;20025;-74
2024/02/06 08:27:51;;;;;;;15.38;3.35;;;11.00;99.90;;;;;;5039569;28;20033;-73
2024/02/06 08:30:17;;;;;;;26.13;3.25;;;11.00;99.90;;;;;;5045872;28;20038;-73
2024/02/06 08:32:43;;;;;;;28.17;4.57;;;11.00;99.90;;;;;;5046945;28;20036;-78
2024/02/06 08:35:09;;;;;;;13.05;2.42;;;11.00;99.90;;;;;;5051066;28;20045;-74
2024/02/06 08:37:35;;;;;;;24.90;3.13;;;11.10;99.90;;;;;;5039253;28;20052;-74
2024/02/06 08:40:01;;;;;;;19.08;2.88;;;11.00;99.90;;;;;;5031347;28;20033;-77
2024/02/06 08:42:26;;;;;;;19.30;3.63;;;11.10;99.90;;;;;;5031003;28;20304;-74
2024/02/06 08:44:52;;;;;;;18.50;2.88;;;11.20;99.90;;;;;;5041450;28;20033;-72
2024/02/06 08:47:18;;;;;;;22.65;3.08;;;11.20;99.90;;;;;;5024460;28;20040;-73
2024/02/06 08:49:43;;;;;;;15.18;2.53;;;11.30;99.90;;;;;;5025192;28;20041;-73
2024/02/06 08:52:09;;;;;;;12.82;3.28;;;11.20;99.90;;;;;;5045514;28;20123;-73
2024/02/06 08:54:34;;;;;;;15.82;2.88;;;11.30;99.90;;;;;;5027128;28;20033;-74
2024/02/06 08:57:00;;;;;;;17.75;2.10;;;11.30;99.90;;;;;;5026086;28;20041;-73
2024/02/06 08:59:26;;;;;;;8.60;1.83;;;11.40;99.90;;;;;;5028371;28;20033;-75
2024/02/06 09:01:52;;;;;;;9.35;1.40;;;11.40;99.90;;;;;;5027971;28;20557;-73
2024/02/06 09:04:18;;;;;;;23.80;2.55;;;11.50;99.90;;;;;;5044229;28;20025;-74
2024/02/06 09:06:44;;;;;;;16.67;2.35;;;11.50;99.90;;;;;;5041281;28;20025;-74
2024/02/06 09:09:09;;;;;;;14.88;2.78;;;11.60;99.90;;;;;;5043259;28;20090;-72
2024/02/06 09:11:35;;;;;;;15.45;1.83;;;11.70;99.90;;;;;;5037579;28;20385;-74
2024/02/06 09:14:00;;;;;;;13.70;3.00;;;11.70;99.90;;;;;;5023479;28;20025;-75
2024/02/06 09:16:26;;;;;;;6.35;1.48;;;11.80;99.90;;;;;;5043417;28;20033;-75
2024/02/06 09:18:52;;;;;;;17.13;2.22;;;11.80;99.90;;;;;;5023936;28;20103;-74
2024/02/06 09:21:19;;;;;;;13.27;1.55;;;11.80;99.90;;;;;;5024625;28;21273;-71
2024/02/06 09:23:45;;;;;;;14.45;1.77;;;11.80;99.90;;;;;;5052195;28;20037;-73
2024/02/06 09:26:11;;;;;;;16.17;2.65;;;11.80;99.90;;;;;;5019152;28;20049;-72
2024/02/06 09:28:38;;;;;;;15.60;2.22;;;11.90;99.90;;;;;;5045053;28;20127;-74
2024/02/06 09:31:06;;;;;;;15.95;2.42;;;11.90;99.90;;;;;;5040427;28;20028;-73
2024/02/06 09:33:32;;;;;;;14.27;2.63;;;12.00;99.90;;;;;;5049771;28;20401;-73
2024/02/06 09:35:58;;;;;;;23.42;2.55;;;12.00;99.90;;;;;;5039969;28;20025;-74
2024/02/06 09:38:24;;;;;;;11.68;2.55;;;12.00;99.90;;;;;;5039034;28;20028;-74
2024/02/06 09:40:50;;;;;;;18.25;2.25;;;12.00;99.90;;;;;;5069623;28;20808;-74
2024/02/06 09:43:16;;;;;;;13.10;2.10;;;12.00;99.90;;;;;;5050922;28;20142;-76
2024/02/06 09:45:46;;;;;;;13.25;2.28;;;12.00;99.90;;;;;;5052561;28;20040;-75
2024/02/06 09:48:12;;;;;;;23.75;2.90;;;12.10;99.90;;;;;;5047438;28;20068;-74
2024/02/06 09:50:39;;;;;;;18.70;2.47;;;12.10;99.90;;;;;;5051845;28;20374;-72
2024/02/06 09:53:09;;;;;;;10.13;2.38;;;12.10;99.90;;;;;;5068115;28;20033;-73
2024/02/06 09:55:41;;;;;;;15.25;2.80;;;12.10;99.90;;;;;;5070414;28;20032;-76
2024/02/06 09:58:08;;;;;;;11.68;1.83;;;12.10;99.90;;;;;;5069560;28;20032;-74
2024/02/06 10:00:36;;;;;;;15.57;4.07;;;12.20;99.90;;;;;;5069976;28;20036;-75
2024/02/06 10:03:07;;;;;;;15.35;1.90;;;12.20;99.90;;;;;;5051171;28;20036;-73
2024/02/06 10:05:40;;;;;;;11.55;2.22;;;12.20;99.90;;;;;;5069945;28;20517;-75
2024/02/06 10:08:08;;;;;;;14.52;2.03;;;12.20;99.90;;;;;;5068867;28;20040;-74
2024/02/06 10:10:35;;;;;;;10.93;3.42;;;12.30;99.90;;;;;;5059395;28;20043;-74
2024/02/06 10:13:03;;;;;;;13.43;2.58;;;12.30;99.90;;;;;;5065131;28;20029;-73
2024/02/06 10:15:28;;;;;;;11.60;2.28;;;12.30;99.90;;;;;;5060699;28;20544;-74
2024/02/06 10:17:54;;;;;;;17.08;2.08;;;12.30;99.90;;;;;;5052269;28;20115;-71
2024/02/06 10:20:19;;;;;;;22.45;4.45;;;12.50;99.90;;;;;;5068421;28;20141;-74
2024/02/06 10:22:46;;;;;;;24.42;2.72;;;12.50;99.90;;;;;;5051986;28;20467;-74
2024/02/06 10:25:13;;;;;;;21.17;4.60;;;12.60;99.90;;;;;;5068740;28;20040;-77
2024/02/06 10:27:39;;;;;;;12.80;2.35;;;12.60;99.90;;;;;;5051433;28;20086;-74
2024/02/06 10:30:10;;;;;;;13.13;2.53;;;12.70;99.90;;;;;;5067643;28;20037;-75
2024/02/06 10:32:36;;;;;;;12.10;2.28;;;12.70;99.90;;;;;;5068837;28;20378;-76
2024/02/06 10:35:03;;;;;;;15.27;3.00;;;12.70;99.90;;;;;;5049602;28;20523;-75
2024/02/06 10:37:30;;;;;;;19.13;2.15;;;12.70;99.90;;;;;;5068372;28;20106;-74
2024/02/06 10:39:57;;;;;;;8.80;1.63;;;12.70;99.90;;;;;;5050260;28;20082;-74
2024/02/06 10:42:23;;;;;;;11.00;2.63;;;12.70;99.90;;;;;;5050002;28;20455;-73
2024/02/06 10:44:55;;;;;;;16.17;2.72;;;12.70;99.90;;;;;;5051361;28;20093;-74
2024/02/06 10:47:22;;;;;;;19.27;2.35;;;12.70;99.90;;;;;;5049976;28;20032;-76
2024/02/06 10:49:48;;;;;;;10.80;1.75;;;12.70;99.90;;;;;;5068321;28;20032;-72
2024/02/06 10:52:15;;;;;;;49.15;3.45;;;12.60;99.90;;;;;;5064511;28;20127;-75
2024/02/06 10:54:41;;;;;;;10.52;1.52;;;12.60;99.90;;;;;;5067796;28;20635;-70
2024/02/06 10:57:07;;;;;;;18.35;4.03;;;12.60;99.90;;;;;;5049545;28;20047;-76
2024/02/06 10:59:46;;;;;;;13.30;2.25;;;12.60;99.90;;;;;;5069392;28;20040;-73
2024/02/06 11:02:29;;;;;;;8.70;2.05;;;12.60;99.90;;;;;;5052785;28;20564;-78
2024/02/06 11:05:21;;;;;;;9.30;1.63;;;12.60;99.90;;;;;;5067527;28;20037;-74
2024/02/06 11:07:54;;;;;;;4.72;1.23;;;12.70;99.90;;;;;;5061602;28;20035;-72
2024/02/06 11:10:22;;;;;;;15.32;2.28;;;12.70;99.90;;;;;;5062487;28;20051;-73
2024/02/06 11:12:58;;;;;;;6.28;1.52;;;12.80;99.90;;;;;;5062662;28;20036;-73
2024/02/06 11:15:24;;;;;;;11.60;1.98;;;12.80;99.90;;;;;;5046966;28;20040;-73
2024/02/06 11:17:52;;;;;;;14.20;2.58;;;12.80;99.90;;;;;;5048020;28;20033;-72
2024/02/06 11:20:23;;;;;;;9.63;1.30;;;12.80;99.90;;;;;;5046101;28;20064;-74
2024/02/06 11:22:53;;;;;;;9.90;1.60;;;12.80;99.90;;;;;;5060027;28;20033;-72
2024/02/06 11:25:20;;;;;;;13.55;1.83;;;12.80;99.90;;;;;;5024857;28;22740;-73
2024/02/06 11:27:47;;;;;;;9.68;2.05;;;12.80;99.90;;;;;;5041692;28;20096;-74
2024/02/06 11:30:15;;;;;;;12.60;2.22;;;12.80;99.90;;;;;;5026731;28;20045;-76
2024/02/06 11:32:41;;;;;;;14.85;2.50;;;12.90;99.90;;;;;;5030251;28;20064;-74
2024/02/06 11:35:07;;;;;;;11.65;1.52;;;12.80;99.90;;;;;;5039148;28;20067;-75
2024/02/06 11:37:32;;;;;;;9.50;1.10;;;12.80;99.90;;;;;;5025979;28;20041;-75
2024/02/06 11:40:06;;;;;;;10.55;1.23;;;12.80;99.90;;;;;;5026716;28;20086;-75
2024/02/06 11:42:35;;;;;;;6.20;1.23;;;12.80;99.90;;;;;;5024039;28;20045;-73
2024/02/06 11:45:06;;;;;;;9.10;2.28;;;12.80;99.90;;;;;;5028596;28;20056;-74
2024/02/06 11:47:31;;;;;;;;;;;12.90;99.90;;;;;;5026703;28;20398;-74
2024/02/06 11:50:12;;;;;;;7.47;2.20;;;12.90;99.90;;;;;;5039188;28;19931;-73
2024/02/06 11:52:41;;;;;;;7.95;1.23;;;12.90;99.90;;;;;;5030141;28;20145;-74
2024/02/06 11:55:08;;;;;;;6.70;1.40;;;12.90;99.90;;;;;;5062787;28;20103;-77
2024/02/06 11:57:35;;;;;;;12.60;1.20;;;12.90;99.90;;;;;;5027473;28;20069;-74
2024/02/06 12:00:00;;;;;;;13.43;2.05;;;12.90;99.90;;;;;;5044384;28;20025;-72
2024/02/06 12:02:26;;;;;;;20.45;2.03;;;12.90;99.90;;;;;;5025959;28;20052;-74
2024/02/06 12:04:51;;;;;;;13.48;2.63;;;12.90;99.90;;;;;;5029866;28;20033;-74
2024/02/06 12:07:17;;;;;;;13.68;2.65;;;13.00;99.90;;;;;;5024459;28;20111;-75
2024/02/06 12:09:43;;;;;;;23.05;3.33;;;13.00;99.90;;;;;;5025885;28;20033;-77
2024/02/06 12:12:13;;;;;;;19.13;2.47;;;13.10;99.90;;;;;;5036197;28;20383;-73
2024/02/06 12:14:39;;;;;;;;;;;13.10;99.90;;;;;;5026688;28;20044;-73
2024/02/06 12:17:05;;;;;;;16.63;2.05;;;13.10;99.90;;;;;;5021240;28;19917;-74
2024/02/06 12:19:31;;;;;;;11.85;2.10;;;13.00;99.90;;;;;;5029463;28;20029;-73
2024/02/06 12:22:04;;;;;;;10.98;2.20;;;13.20;99.90;;;;;;5045699;28;20033;-74
2024/02/06 12:24:30;;;;;;;7.80;1.88;;;13.10;99.90;;;;;;5043858;28;20115;-74
2024/02/06 12:27:06;;;;;;;9.90;2.15;;;13.10;99.90;;;;;;5045162;28;20033;-76
2024/02/06 12:29:39;;;;;;;11.75;2.28;;;13.10;99.90;;;;;;5043149;28;20041;-76
2024/02/06 12:32:05;;;;;;;8.20;2.22;;;13.10;99.90;;;;;;5046111;28;20571;-77
2024/02/06 12:34:32;;;;;;;21.15;2.88;;;13.10;99.90;;;;;;5052228;28;20036;-75